createdAt,value
2018-12-21T00:01:54.672Z,67.17
2018-12-21T00:04:24.678Z,68.00
2018-12-21T00:06:54.631Z,63.43
2018-12-21T00:09:24.645Z,67.87
2018-12-21T00:11:55.616Z,66.20
2018-12-21T00:14:25.589Z,63.73
2018-12-21T00:16:55.515Z,63.10
2018-12-21T00:19:25.552Z,63.13
2018-12-21T00:21:55.480Z,59.13
2018-12-21T00:24:25.438Z,58.90
2018-12-21T00:26:55.396Z,59.30
2018-12-21T00:29:25.449Z,57.90
2018-12-21T00:32:00.552Z,58.37
2018-12-21T00:34:35.617Z,58.97
2018-12-21T00:37:10.604Z,59.77
2018-12-21T00:39:45.893Z,57.67
2018-12-21T00:42:20.166Z,57.23
2018-12-21T00:44:52.965Z,57.47
2018-12-21T00:47:22.981Z,58.63
2018-12-21T00:49:53.002Z,58.10
2018-12-21T00:52:22.909Z,56.87
2018-12-21T00:54:52.905Z,58.13
2018-12-21T00:57:22.856Z,60.80
2018-12-21T00:59:52.753Z,60.03
2018-12-21T01:02:22.785Z,59.00
2018-12-21T01:04:52.833Z,59.17
2018-12-21T01:07:22.790Z,57.27
2018-12-21T01:09:52.716Z,62.03
2018-12-21T01:12:22.651Z,54.83
2018-12-21T01:14:52.545Z,61.03
2018-12-21T01:17:22.565Z,59.00
2018-12-21T01:19:52.509Z,59.10
2018-12-21T01:22:23.518Z,62.43
2018-12-21T01:24:53.528Z,61.50
2018-12-21T01:27:23.572Z,66.00
2018-12-21T01:29:53.471Z,58.50
2018-12-21T01:32:23.870Z,62.00
2018-12-21T01:34:53.771Z,63.03
2018-12-21T01:37:23.917Z,65.07
2018-12-21T01:39:53.972Z,63.87
2018-12-21T01:42:23.971Z,66.10
2018-12-21T01:44:53.880Z,62.40
2018-12-21T01:47:25.076Z,61.50
2018-12-21T01:49:55.023Z,67.57
2018-12-21T01:52:25.073Z,61.20
2018-12-21T01:54:55.018Z,64.07
2018-12-21T01:57:25.119Z,61.80
2018-12-21T01:59:55.022Z,56.10
2018-12-21T02:02:24.998Z,58.10
2018-12-21T02:04:54.998Z,60.40
2018-12-21T02:07:24.985Z,63.30
2018-12-21T02:09:54.959Z,63.77
2018-12-21T02:12:24.908Z,60.23
2018-12-21T02:14:54.895Z,57.93
2018-12-21T02:17:24.874Z,58.70
2018-12-21T02:19:54.796Z,62.80
2018-12-21T02:22:24.800Z,62.03
2018-12-21T02:24:54.628Z,61.80
2018-12-21T02:27:24.576Z,69.17
2018-12-21T02:29:54.643Z,65.53
2018-12-21T02:32:25.786Z,64.90
2018-12-21T02:34:55.721Z,59.60
2018-12-21T02:37:25.673Z,73.47
2018-12-21T02:39:55.533Z,73.17
2018-12-21T02:42:25.428Z,67.50
2018-12-21T02:44:55.389Z,69.53
2018-12-21T02:47:25.284Z,79.33
2018-12-21T02:49:55.539Z,71.53
2018-12-21T02:52:25.458Z,72.13
2018-12-21T02:54:55.505Z,69.93
2018-12-21T02:57:25.416Z,75.80
2018-12-21T02:59:55.293Z,78.40
2018-12-21T03:02:26.153Z,75.80
2018-12-21T03:04:56.007Z,65.03
2018-12-21T03:07:25.889Z,77.67
2018-12-21T03:09:55.795Z,77.60
2018-12-21T03:12:25.744Z,84.20
2018-12-21T03:14:55.721Z,76.50
2018-12-21T03:17:25.577Z,74.63
2018-12-21T03:19:55.447Z,73.03
2018-12-21T03:22:25.349Z,82.90
2018-12-21T03:24:55.262Z,89.03
2018-12-21T03:27:25.149Z,80.77
2018-12-21T03:29:55.111Z,81.93
2018-12-21T03:32:24.946Z,86.13
2018-12-21T03:34:54.820Z,82.53
2018-12-21T03:37:24.704Z,90.43
2018-12-21T03:39:55.427Z,93.63
2018-12-21T03:42:25.403Z,88.80
2018-12-21T03:44:55.390Z,83.70
2018-12-21T03:47:25.399Z,81.40
2018-12-21T03:49:55.406Z,91.37
2018-12-21T03:52:25.301Z,68.27
2018-12-21T03:54:55.332Z,76.37
2018-12-21T03:57:25.233Z,91.33
2018-12-21T03:59:55.241Z,92.30
2018-12-21T04:02:25.133Z,86.00
2018-12-21T04:04:55.053Z,91.57
2018-12-21T04:07:25.052Z,86.17
2018-12-21T04:09:54.981Z,80.40
2018-12-21T04:12:24.924Z,88.10
2018-12-21T04:14:54.856Z,77.00
2018-12-21T04:17:24.710Z,87.43
2018-12-21T04:19:54.579Z,86.30
2018-12-21T04:22:33.795Z,95.80
2018-12-21T04:24:56.383Z,108.93
2018-12-21T04:27:26.341Z,103.00
2018-12-21T04:29:56.268Z,100.03
2018-12-21T04:32:26.258Z,88.17
2018-12-21T04:34:57.172Z,111.27
2018-12-21T04:37:27.161Z,107.87
2018-12-21T04:39:57.033Z,79.00
2018-12-21T04:42:26.977Z,85.27
2018-12-21T04:44:56.936Z,110.93
2018-12-21T04:47:26.863Z,86.53
2018-12-21T04:49:56.792Z,81.67
2018-12-21T04:52:26.715Z,105.33
2018-12-21T04:54:56.771Z,66.03
2018-12-21T04:57:26.633Z,70.30
2018-12-21T04:59:56.493Z,106.47
2018-12-21T05:02:26.515Z,106.40
2018-12-21T05:04:56.404Z,80.43
2018-12-21T05:07:26.455Z,85.67
2018-12-21T05:09:56.335Z,106.13
2018-12-21T05:12:26.406Z,84.97
2018-12-21T05:14:56.348Z,64.93
2018-12-21T05:17:26.388Z,110.23
2018-12-21T05:19:56.480Z,112.93
2018-12-21T05:22:26.622Z,109.10
2018-12-21T05:24:56.748Z,105.70
2018-12-21T05:27:26.885Z,105.93
2018-12-21T05:29:56.935Z,105.97
2018-12-21T05:32:26.863Z,68.87
2018-12-21T05:34:56.810Z,63.10
2018-12-21T05:37:26.874Z,58.90
2018-12-21T05:39:56.866Z,79.40
2018-12-21T05:42:27.040Z,83.50
2018-12-21T05:44:57.005Z,89.80
2018-12-21T05:47:26.920Z,96.57
2018-12-21T05:49:57.152Z,74.57
2018-12-21T05:52:27.256Z,96.53
2018-12-21T05:54:57.297Z,77.80
2018-12-21T05:57:27.455Z,71.27
2018-12-21T05:59:57.466Z,61.33
2018-12-21T06:02:27.444Z,58.47
2018-12-21T06:04:57.284Z,58.83
2018-12-21T06:07:27.200Z,85.63
2018-12-21T06:09:57.167Z,84.83
2018-12-21T06:12:27.266Z,73.43
2018-12-21T06:14:57.127Z,75.07
2018-12-21T06:17:27.002Z,83.30
2018-12-21T06:19:56.931Z,79.47
2018-12-21T06:22:27.078Z,83.97
2018-12-21T06:24:57.040Z,78.87
2018-12-21T06:27:33.225Z,74.27
2018-12-21T06:30:17.939Z,68.60
2018-12-21T06:32:54.921Z,77.87
2018-12-21T06:35:24.922Z,68.57
2018-12-21T06:37:54.737Z,64.27
2018-12-21T06:40:24.683Z,68.50
2018-12-21T06:42:54.545Z,65.03
2018-12-21T06:45:24.571Z,63.17
2018-12-21T06:47:54.473Z,58.63
2018-12-21T06:50:24.297Z,60.87
2018-12-21T06:52:54.199Z,61.77
2018-12-21T06:55:24.171Z,62.03
2018-12-21T06:57:54.197Z,56.33
2018-12-21T07:00:24.028Z,63.37
2018-12-21T07:02:54.001Z,65.30
2018-12-21T07:05:23.970Z,54.77
2018-12-21T07:07:53.889Z,61.07
2018-12-21T07:10:23.748Z,59.33
2018-12-21T07:12:53.690Z,62.53
2018-12-21T07:15:23.607Z,53.83
2018-12-21T07:17:53.516Z,53.53
2018-12-21T07:20:24.587Z,55.03
2018-12-21T07:22:54.682Z,62.23
2018-12-21T07:25:24.618Z,55.50
2018-12-21T07:27:54.641Z,57.43
2018-12-21T07:30:24.648Z,59.97
2018-12-21T07:32:54.599Z,69.67
2018-12-21T07:35:24.640Z,68.20
2018-12-21T07:37:54.680Z,71.53
2018-12-21T07:40:24.920Z,82.33
2018-12-21T07:42:54.926Z,80.40
2018-12-21T07:45:25.074Z,68.20
2018-12-21T07:47:54.973Z,62.30
2018-12-21T07:50:25.182Z,66.10
2018-12-21T07:52:55.420Z,61.97
2018-12-21T07:55:25.648Z,71.10
2018-12-21T07:57:55.768Z,75.37
2018-12-21T08:00:25.948Z,80.20
2018-12-21T08:02:56.145Z,87.40
2018-12-21T08:05:26.084Z,68.87
2018-12-21T08:07:55.876Z,70.37
2018-12-21T08:10:26.056Z,62.87
2018-12-21T08:12:56.157Z,65.63
2018-12-21T08:15:26.202Z,61.73
2018-12-21T08:17:56.249Z,60.37
2018-12-21T08:20:27.490Z,54.03
2018-12-21T08:22:57.666Z,59.53
2018-12-21T08:25:27.760Z,56.83
2018-12-21T08:27:58.034Z,62.17
2018-12-21T08:30:28.288Z,61.73
2018-12-21T08:32:58.348Z,58.37
2018-12-21T08:35:28.496Z,58.87
2018-12-21T08:37:58.714Z,60.63
2018-12-21T08:40:28.889Z,61.57
2018-12-21T08:42:59.207Z,59.33
2018-12-21T08:45:29.431Z,59.60
2018-12-21T08:47:59.554Z,58.37
2018-12-21T08:50:29.609Z,55.10
2018-12-21T08:52:59.627Z,53.40
2018-12-21T08:55:30.519Z,51.07
2018-12-21T08:58:00.620Z,51.83
2018-12-21T09:00:30.568Z,47.83
2018-12-21T09:03:00.618Z,48.37
2018-12-21T09:05:30.850Z,49.43
2018-12-21T09:08:00.917Z,47.23
2018-12-21T09:10:30.943Z,47.67
2018-12-21T09:13:01.033Z,45.23
2018-12-21T09:15:31.073Z,44.27
2018-12-21T09:18:01.058Z,50.27
2018-12-21T09:20:31.199Z,48.97
2018-12-21T09:23:01.276Z,49.47
2018-12-21T09:25:32.296Z,51.87
2018-12-21T09:28:02.248Z,48.27
2018-12-21T09:30:32.181Z,49.70
2018-12-21T09:33:02.103Z,49.50
2018-12-21T09:35:32.295Z,50.23
2018-12-21T09:38:02.550Z,50.60
2018-12-21T09:40:32.856Z,45.70
2018-12-21T09:43:02.955Z,46.60
2018-12-21T09:45:33.121Z,48.30
2018-12-21T09:48:03.122Z,42.03
2018-12-21T09:50:33.209Z,43.90
2018-12-21T09:53:03.160Z,42.40
2018-12-21T09:55:33.121Z,46.53
2018-12-21T09:58:03.168Z,43.90
2018-12-21T10:00:34.329Z,42.30
2018-12-21T10:03:04.466Z,41.87
2018-12-21T10:05:34.597Z,45.03
2018-12-21T10:08:05.518Z,42.57
2018-12-21T10:10:35.457Z,39.03
2018-12-21T10:13:05.464Z,37.07
2018-12-21T10:15:35.506Z,39.00
2018-12-21T10:18:05.601Z,36.80
2018-12-21T10:20:35.660Z,43.47
2018-12-21T10:23:05.799Z,38.27
2018-12-21T10:25:35.833Z,43.70
2018-12-21T10:28:05.936Z,35.87
2018-12-21T10:30:36.174Z,37.80
2018-12-21T10:33:06.297Z,39.00
2018-12-21T10:35:36.283Z,42.73
2018-12-21T10:38:06.304Z,43.33
2018-12-21T10:40:36.303Z,40.30
2018-12-21T10:43:06.480Z,40.97
2018-12-21T10:45:41.610Z,44.50
2018-12-21T10:48:08.927Z,41.60
2018-12-21T10:50:38.944Z,42.23
2018-12-21T10:53:09.293Z,39.77
2018-12-21T10:55:39.443Z,41.67
2018-12-21T10:58:09.537Z,43.67
2018-12-21T11:00:39.593Z,43.50
2018-12-21T11:03:09.692Z,40.37
2018-12-21T11:05:39.631Z,43.57
2018-12-21T11:08:09.772Z,42.73
2018-12-21T11:10:39.892Z,42.37
2018-12-21T11:13:10.038Z,38.17
2018-12-21T11:15:40.082Z,36.93
2018-12-21T11:18:10.093Z,42.27
2018-12-21T11:20:39.903Z,40.47
2018-12-21T11:23:09.910Z,44.20
2018-12-21T11:25:39.837Z,44.80
2018-12-21T11:28:10.077Z,45.27
2018-12-21T11:30:40.135Z,46.27
2018-12-21T11:33:10.176Z,48.67
2018-12-21T11:35:40.202Z,46.43
2018-12-21T11:38:10.241Z,48.07
2018-12-21T11:40:40.352Z,47.87
2018-12-21T11:43:10.471Z,44.27
2018-12-21T11:45:40.815Z,41.90
2018-12-21T11:48:11.028Z,37.80
2018-12-21T11:50:40.978Z,38.10
2018-12-21T11:53:11.196Z,31.97
2018-12-21T11:55:41.107Z,35.83
2018-12-21T11:58:11.118Z,33.73
2018-12-21T12:00:41.139Z,32.63
2018-12-21T12:03:11.217Z,33.03
2018-12-21T12:05:41.125Z,35.33
2018-12-21T12:08:11.203Z,33.77
2018-12-21T12:10:41.214Z,34.10
2018-12-21T12:13:11.136Z,34.57
2018-12-21T12:15:41.177Z,35.03
2018-12-21T12:18:11.269Z,40.97
2018-12-21T12:20:41.277Z,39.63
2018-12-21T12:23:11.504Z,40.73
2018-12-21T12:25:41.750Z,42.83
2018-12-21T12:28:11.850Z,43.80
2018-12-21T12:30:41.840Z,38.07
2018-12-21T12:33:12.049Z,42.70
2018-12-21T12:35:42.211Z,43.10
2018-12-21T12:38:12.521Z,44.10
2018-12-21T12:40:43.509Z,39.57
2018-12-21T12:43:13.715Z,35.27
2018-12-21T12:45:44.134Z,40.83
2018-12-21T12:48:14.150Z,41.70
2018-12-21T12:50:44.205Z,35.10
2018-12-21T12:53:14.589Z,44.17
2018-12-21T12:55:44.867Z,45.70
2018-12-21T12:58:15.077Z,38.17
2018-12-21T13:00:45.301Z,42.23
2018-12-21T13:03:15.288Z,43.33
2018-12-21T13:05:45.334Z,41.93
2018-12-21T13:08:15.409Z,41.03
2018-12-21T13:10:45.578Z,43.30
2018-12-21T13:13:15.842Z,42.20
2018-12-21T13:15:46.040Z,39.83
2018-12-21T13:18:16.287Z,41.30
2018-12-21T13:20:46.346Z,37.90
2018-12-21T13:23:16.460Z,39.87
2018-12-21T13:25:47.763Z,33.20
2018-12-21T13:28:23.182Z,34.00
2018-12-21T13:30:53.231Z,32.20
2018-12-21T13:33:23.455Z,33.30
2018-12-21T13:35:53.518Z,31.33
2018-12-21T13:38:23.720Z,31.53
2018-12-21T13:40:53.754Z,30.83
2018-12-21T13:43:23.924Z,29.80
2018-12-21T13:45:54.142Z,35.30
2018-12-21T13:48:24.359Z,31.23
2018-12-21T13:50:54.471Z,29.57
2018-12-21T13:53:24.633Z,29.00
2018-12-21T13:55:54.914Z,26.63
2018-12-21T13:58:25.047Z,27.97
2018-12-21T14:00:55.246Z,25.40
2018-12-21T14:03:25.338Z,26.20
2018-12-21T14:05:55.466Z,27.93
2018-12-21T14:08:25.595Z,33.57
2018-12-21T14:10:55.609Z,31.93
2018-12-21T14:13:25.657Z,34.23
2018-12-21T14:15:55.707Z,37.03
2018-12-21T14:18:25.838Z,41.03
2018-12-21T14:20:55.794Z,41.40
2018-12-21T14:23:26.554Z,41.63
2018-12-21T14:25:56.559Z,40.67
2018-12-21T14:28:26.585Z,38.87
2018-12-21T14:30:56.551Z,40.77
2018-12-21T14:33:26.615Z,37.33
2018-12-21T14:35:57.245Z,37.87
2018-12-21T14:38:27.237Z,35.17
2018-12-21T14:40:57.189Z,37.73
2018-12-21T14:43:27.219Z,36.80
2018-12-21T14:45:57.295Z,37.47
2018-12-21T14:48:27.428Z,42.37
2018-12-21T14:50:57.238Z,41.77
2018-12-21T14:53:27.120Z,55.90
2018-12-21T14:55:56.844Z,56.97
2018-12-21T14:58:26.613Z,42.20
2018-12-21T15:00:56.471Z,46.67
2018-12-21T15:03:26.224Z,45.90
2018-12-21T15:05:56.022Z,42.63
2018-12-21T15:08:25.707Z,44.43
2018-12-21T15:10:55.503Z,42.77
2018-12-21T15:13:25.253Z,54.73
2018-12-21T15:15:55.100Z,66.53
2018-12-21T15:18:24.921Z,62.57
2018-12-21T15:20:54.729Z,69.27
2018-12-21T15:23:24.581Z,47.83
2018-12-21T15:25:54.503Z,45.73
2018-12-21T15:28:24.286Z,45.57
2018-12-21T15:31:00.456Z,56.63
2018-12-21T15:33:30.287Z,55.53
2018-12-21T15:36:00.086Z,55.03
2018-12-21T15:38:29.892Z,43.03
2018-12-21T15:40:59.763Z,52.00
2018-12-21T15:43:29.669Z,62.13
2018-12-21T15:45:59.686Z,49.50
2018-12-21T15:48:29.991Z,63.93
2018-12-21T15:51:00.135Z,59.50
2018-12-21T15:53:31.344Z,39.70
2018-12-21T15:56:01.507Z,42.53
2018-12-21T15:58:31.912Z,37.83
2018-12-21T16:01:02.031Z,44.90
2018-12-21T16:03:32.206Z,35.13
2018-12-21T16:06:02.154Z,53.10
2018-12-21T16:08:32.254Z,52.13
2018-12-21T16:11:02.648Z,38.97
2018-12-21T16:13:32.789Z,40.90
2018-12-21T16:16:03.133Z,37.63
2018-12-21T16:18:33.219Z,46.87
2018-12-21T16:21:03.785Z,39.83
2018-12-21T16:23:33.739Z,47.07
2018-12-21T16:26:04.032Z,49.27
2018-12-21T16:28:34.100Z,52.17
2018-12-21T16:31:04.541Z,44.33
2018-12-21T16:33:34.590Z,50.00
2018-12-21T16:36:04.981Z,58.37
2018-12-21T16:38:35.146Z,46.80
2018-12-21T16:41:05.483Z,47.97
2018-12-21T16:43:35.602Z,49.43
2018-12-21T16:46:05.810Z,50.97
2018-12-21T16:48:35.897Z,49.30
2018-12-21T16:51:06.480Z,54.77
2018-12-21T16:53:36.628Z,44.63
2018-12-21T16:56:12.418Z,52.50
2018-12-21T16:58:38.920Z,50.80
2018-12-21T17:01:09.008Z,59.07
2018-12-21T17:03:40.132Z,59.27
2018-12-21T17:06:10.267Z,44.60
2018-12-21T17:08:40.714Z,73.93
2018-12-21T17:11:10.772Z,55.93
2018-12-21T17:13:40.862Z,71.00
2018-12-21T17:16:11.164Z,48.67
2018-12-21T17:18:41.696Z,66.93
2018-12-21T17:21:11.977Z,50.13
2018-12-21T17:23:42.250Z,77.13
2018-12-21T17:26:21.024Z,108.93
2018-12-21T17:28:44.544Z,61.00
2018-12-21T17:31:14.615Z,71.17
2018-12-21T17:33:44.642Z,83.03
2018-12-21T17:36:14.780Z,54.40
2018-12-21T17:38:44.748Z,52.47
2018-12-21T17:41:15.982Z,78.93
2018-12-21T17:43:50.237Z,67.37
2018-12-21T17:46:20.455Z,174.13
2018-12-21T17:48:50.740Z,96.47
2018-12-21T17:51:20.859Z,58.17
2018-12-21T17:53:51.041Z,71.77
2018-12-21T17:56:29.696Z,83.10
2018-12-21T17:58:53.326Z,69.13
2018-12-21T18:01:24.181Z,78.53
2018-12-21T18:04:01.511Z,73.80
2018-12-21T18:06:31.581Z,71.40
2018-12-21T18:09:01.764Z,69.57
2018-12-21T18:11:32.403Z,76.73
2018-12-21T18:14:02.627Z,66.17
2018-12-21T18:16:32.839Z,137.67
2018-12-21T18:19:02.966Z,96.23
2018-12-21T18:21:39.219Z,86.13
2018-12-21T18:24:09.258Z,85.93
2018-12-21T18:26:39.407Z,99.00
2018-12-21T18:29:09.378Z,98.77
2018-12-21T18:31:52.582Z,90.73
2018-12-21T18:34:30.735Z,97.07
2018-12-21T18:37:02.876Z,105.87
2018-12-21T18:39:33.114Z,96.40
2018-12-21T18:42:03.075Z,130.43
2018-12-21T18:44:33.207Z,131.37
2018-12-21T18:47:03.442Z,93.50
2018-12-21T18:49:33.619Z,121.27
2018-12-21T18:52:03.682Z,96.10
2018-12-21T18:54:33.580Z,104.17
2018-12-21T18:57:06.536Z,87.00
2018-12-21T18:59:36.525Z,136.27
2018-12-21T19:02:06.762Z,100.83
2018-12-21T19:04:36.870Z,107.47
2018-12-21T19:07:07.186Z,101.90
2018-12-21T19:09:37.198Z,130.83
2018-12-21T19:12:07.269Z,90.77
2018-12-21T19:14:37.374Z,113.53
2018-12-21T19:17:08.564Z,86.40
2018-12-21T19:19:38.635Z,129.07
2018-12-21T19:22:08.882Z,86.47
2018-12-21T19:24:39.036Z,100.60
2018-12-21T19:27:09.138Z,89.90
2018-12-21T19:29:39.179Z,113.30
2018-12-21T19:32:09.586Z,100.77
2018-12-21T19:34:40.840Z,96.10
2018-12-21T19:37:11.208Z,114.77
2018-12-21T19:39:41.408Z,115.33
2018-12-21T19:42:11.546Z,105.07
2018-12-21T19:44:41.704Z,120.73
2018-12-21T19:47:11.990Z,98.10
2018-12-21T19:49:42.227Z,90.50
2018-12-21T19:52:12.400Z,106.80
2018-12-21T19:54:42.429Z,97.57
2018-12-21T19:57:13.785Z,101.93
2018-12-21T19:59:56.286Z,105.67
2018-12-21T20:02:26.148Z,86.37
2018-12-21T20:04:55.826Z,124.80
2018-12-21T20:07:25.682Z,92.83
2018-12-21T20:09:55.498Z,90.83
2018-12-21T20:12:25.486Z,99.47
2018-12-21T20:15:42.757Z,99.10
2018-12-21T20:18:12.722Z,114.67
2018-12-21T20:20:42.352Z,106.50
2018-12-21T20:23:12.313Z,98.80
2018-12-21T20:25:42.797Z,114.80
2018-12-21T20:28:12.563Z,89.83
2018-12-21T20:30:42.358Z,97.77
2018-12-21T20:33:12.252Z,111.87
2018-12-21T20:35:42.361Z,91.30
2018-12-21T20:38:12.292Z,108.23
2018-12-21T20:40:42.047Z,90.27
2018-12-21T20:46:34.503Z,85.37
2018-12-21T20:51:51.702Z,92.17
2018-12-21T20:54:28.422Z,107.60
2018-12-21T20:57:01.131Z,102.97
2018-12-21T20:59:31.069Z,84.20
2018-12-21T21:02:00.821Z,79.03
2018-12-21T21:04:30.669Z,76.53
2018-12-21T21:07:00.489Z,73.70
2018-12-21T21:09:30.433Z,70.33
2018-12-21T21:12:00.130Z,69.70
2018-12-21T21:14:29.959Z,78.40
2018-12-21T21:16:59.760Z,79.80
2018-12-21T21:19:32.969Z,72.20
2018-12-21T21:22:02.861Z,71.03
2018-12-21T21:24:32.665Z,72.03
2018-12-21T21:27:02.431Z,65.87
2018-12-21T21:29:32.248Z,66.70
2018-12-21T21:32:02.141Z,70.70
2018-12-21T21:34:32.018Z,73.10
2018-12-21T21:37:01.871Z,68.30
2018-12-21T21:39:31.732Z,65.90
2018-12-21T21:42:01.595Z,75.57
2018-12-21T21:44:31.359Z,68.33
2018-12-21T21:47:01.289Z,72.40
2018-12-21T21:49:31.331Z,76.17
2018-12-21T21:52:01.295Z,94.03
2018-12-21T21:54:32.138Z,98.80
2018-12-21T21:57:02.144Z,90.43
2018-12-21T21:59:31.888Z,83.97
2018-12-21T22:02:01.874Z,79.93
2018-12-21T22:04:31.716Z,90.53
2018-12-21T22:07:01.523Z,76.07
2018-12-21T22:09:31.258Z,78.63
2018-12-21T22:12:01.158Z,66.53
2018-12-21T22:14:30.971Z,101.23
2018-12-21T22:17:00.746Z,91.07
2018-12-21T22:19:30.509Z,72.33
2018-12-21T22:22:00.389Z,72.87
2018-12-21T22:24:30.134Z,79.10
2018-12-21T22:27:00.196Z,119.60
2018-12-21T22:29:30.082Z,70.87
2018-12-21T22:31:59.971Z,82.27
2018-12-21T22:34:29.809Z,68.20
2018-12-21T22:36:59.771Z,74.57
2018-12-21T22:39:29.685Z,72.17
2018-12-21T22:41:59.536Z,69.37
2018-12-21T22:44:29.413Z,79.07
2018-12-21T22:46:59.349Z,70.63
2018-12-21T22:49:29.030Z,74.83
2018-12-21T22:51:58.805Z,68.93
2018-12-21T22:54:28.547Z,90.03
2018-12-21T22:56:58.400Z,66.53
2018-12-21T22:59:28.154Z,67.77
2018-12-21T23:01:57.886Z,69.23
2018-12-21T23:04:27.735Z,71.77
2018-12-21T23:06:57.766Z,68.73
2018-12-21T23:09:27.624Z,67.80
2018-12-21T23:11:57.496Z,71.10
2018-12-21T23:14:27.262Z,80.70
2018-12-21T23:16:57.133Z,68.23
2018-12-21T23:19:26.941Z,77.23
2018-12-21T23:21:56.878Z,67.23
2018-12-21T23:24:26.654Z,80.57
2018-12-21T23:26:56.555Z,65.77
2018-12-21T23:29:26.345Z,70.03
2018-12-21T23:31:56.108Z,71.70
2018-12-21T23:34:25.823Z,67.90
2018-12-21T23:36:55.511Z,62.60
2018-12-21T23:39:25.275Z,79.17
2018-12-21T23:41:55.045Z,66.63
2018-12-21T23:44:24.878Z,78.27
2018-12-21T23:46:54.623Z,68.63
2018-12-21T23:49:24.371Z,94.87
2018-12-21T23:51:54.270Z,75.77
2018-12-21T23:54:24.034Z,79.03
2018-12-21T23:56:53.866Z,63.20
2018-12-21T23:59:23.765Z,61.03
